Coleman A. Young Municipal Airport
KDET : now visible

Airfield :











YOU CAN JOIN US ON...

 
LOGIN :

Register | Disclaimer

   EN    FR    IT 

 









Legend :    VFR   Marginal VFR   IFR   Intensive IFR   Very Intensive IFR
Visi :
Ceiling :
>= 8 km
>= 3000ft
5 to 8 km
1000 to 3000 ft
1500m to 5 km
500 to 1000 ft
800 to 1500m
200 to 500 ft
< 800m
< 200 ft
Symbols :   Thunderstorms  Fog  Heavy snow  Heavy precipitations  Wind > 20 kt






- Airport Elevation : 626 ft
- IATA code : DET


KDET - Coleman A. Young Municipal

CURRENT METAR :
  • 061853Z 14007KT 10SM OVC021 00/M06 A3028 RMK AO2 SLP259 T00001056

EXPIRED METARs :
  • 061753Z 08003KT 10SM OVC020 M01/M06 A3029 RMK AO2 SLP264 T10061061 10000 21011 50001
  • 061653Z 16005KT 10SM OVC021 M01/M07 A3032 RMK AO2 SLP272 T10061067

TAF KDET
Valid from the 06 at 18:00 until the 07 at 18:00 UTC


061736Z 0618/0718 14004KT P6SM BKN021
FM062100 15005KT P6SM SCT020 BKN250
FM070000 13007KT P6SM BKN150 OVC250
FM070800 16011KT P6SM BKN070 BKN150 WS020/20045KT
FM071100 18014G24KT P6SM OVC030 WS020/22045KT
TEMPO 0711/0714 P6SM -SHRA OVC025
FM071500 21015G25KT P6SM OVC015
KZOB FIR / North America



MET'MAP, your aeronautical weather chart ! - Copyright ORBIFLY December 2007 - Disclaimer

ORBIFLY MET'MAP TEAM :

Programming & Development : Alexandra Zaïnal
Original concept : Baudouin d'Aumeries
Technical & hardware support : Manuel Goepfert
Assistance : Marc-Olivier Méhu




SOURCES & CREDITS :

   NOAA       Earth
Advisory